sensor_id;sensor_type;location;lat;lon;timestamp;pressure;altitude;pressure_sealevel;temperature;humidity
62164;BME280;48149;51.132;7.178;2023-02-15T00:01:37;99929.88;;;11.58;nan
62164;BME280;48149;51.132;7.178;2023-02-15T00:04:06;99922.94;;;11.93;nan
62164;BME280;48149;51.132;7.178;2023-02-15T00:06:31;99916.75;;;12.28;nan
62164;BME280;48149;51.132;7.178;2023-02-15T00:08:57;99916.13;;;11.98;nan
62164;BME280;48149;51.132;7.178;2023-02-15T00:11:22;99910.84;;;11.70;nan
62164;BME280;48149;51.132;7.178;2023-02-15T00:14:28;99916.50;;;12.51;nan
62164;BME280;48149;51.132;7.178;2023-02-15T00:16:52;99910.16;;;11.41;nan
62164;BME280;48149;51.132;7.178;2023-02-15T00:19:20;99909.97;;;11.85;nan
62164;BME280;48149;51.132;7.178;2023-02-15T00:21:46;99903.78;;;12.54;nan
62164;BME280;48149;51.132;7.178;2023-02-15T00:24:12;99910.06;;;11.98;nan
62164;BME280;48149;51.132;7.178;2023-02-15T00:26:38;99909.41;;;11.68;nan
62164;BME280;48149;51.132;7.178;2023-02-15T00:29:04;99906.63;;;12.25;nan
62164;BME280;48149;51.132;7.178;2023-02-15T00:31:30;99904.09;;;12.04;nan
62164;BME280;48149;51.132;7.178;2023-02-15T00:34:00;99900.66;;;11.82;nan
62164;BME280;48149;51.132;7.178;2023-02-15T00:36:26;99897.78;;;12.32;nan
62164;BME280;48149;51.132;7.178;2023-02-15T00:38:51;99897.00;;;12.04;nan
62164;BME280;48149;51.132;7.178;2023-02-15T00:41:16;99903.78;;;12.54;nan
62164;BME280;48149;51.132;7.178;2023-02-15T00:43:42;99902.38;;;12.24;nan
62164;BME280;48149;51.132;7.178;2023-02-15T00:46:07;99905.59;;;13.01;nan
62164;BME280;48149;51.132;7.178;2023-02-15T00:48:32;99906.97;;;12.15;nan
62164;BME280;48149;51.132;7.178;2023-02-15T00:50:58;99906.63;;;12.25;nan
62164;BME280;48149;51.132;7.178;2023-02-15T00:53:24;99906.06;;;12.02;nan
62164;BME280;48149;51.132;7.178;2023-02-15T00:55:49;99903.34;;;11.89;nan
62164;BME280;48149;51.132;7.178;2023-02-15T00:58:15;99907.16;;;12.42;nan
62164;BME280;48149;51.132;7.178;2023-02-15T01:00:41;99904.41;;;11.94;nan
62164;BME280;48149;51.132;7.178;2023-02-15T01:03:07;99915.16;;;12.34;nan
62164;BME280;48149;51.132;7.178;2023-02-15T01:05:32;99910.09;;;11.76;nan
62164;BME280;48149;51.132;7.178;2023-02-15T01:07:57;99907.09;;;11.80;nan
62164;BME280;48149;51.132;7.178;2023-02-15T01:10:23;99907.84;;;11.73;nan
62164;BME280;48149;51.132;7.178;2023-02-15T01:12:52;99902.34;;;11.68;nan
62164;BME280;48149;51.132;7.178;2023-02-15T01:15:17;99896.84;;;11.21;nan
62164;BME280;48149;51.132;7.178;2023-02-15T01:17:43;99897.84;;;11.84;nan
62164;BME280;48149;51.132;7.178;2023-02-15T01:20:10;99890.34;;;11.38;nan
62164;BME280;48149;51.132;7.178;2023-02-15T01:22:36;99889.22;;;11.90;nan
62164;BME280;48149;51.132;7.178;2023-02-15T01:25:01;99884.09;;;11.60;nan
62164;BME280;48149;51.132;7.178;2023-02-15T01:27:26;99883.63;;;11.71;nan
62164;BME280;48149;51.132;7.178;2023-02-15T01:29:55;99884.31;;;10.81;nan
62164;BME280;48149;51.132;7.178;2023-02-15T01:32:20;99881.06;;;12.40;nan
62164;BME280;48149;51.132;7.178;2023-02-15T01:34:45;99889.31;;;12.71;nan
62164;BME280;48149;51.132;7.178;2023-02-15T01:37:10;99878.06;;;11.39;nan
62164;BME280;48149;51.132;7.178;2023-02-15T01:39:36;99874.47;;;12.16;nan
62164;BME280;48149;51.132;7.178;2023-02-15T01:42:01;99871.66;;;11.90;nan
62164;BME280;48149;51.132;7.178;2023-02-15T01:47:10;99866.56;;;11.61;nan
62164;BME280;48149;51.132;7.178;2023-02-15T01:49:37;99867.22;;;12.18;nan
62164;BME280;48149;51.132;7.178;2023-02-15T01:52:05;99860.25;;;11.76;nan
62164;BME280;48149;51.132;7.178;2023-02-15T01:54:32;99856.75;;;11.48;nan
62164;BME280;48149;51.132;7.178;2023-02-15T01:57:02;99866.78;;;12.49;nan
62164;BME280;48149;51.132;7.178;2023-02-15T01:59:28;99867.00;;;12.20;nan
62164;BME280;48149;51.132;7.178;2023-02-15T02:01:55;99868.75;;;11.79;nan
62164;BME280;48149;51.132;7.178;2023-02-15T02:04:25;99860.03;;;11.99;nan
62164;BME280;48149;51.132;7.178;2023-02-15T02:06:53;99861.38;;;11.67;nan
62164;BME280;48149;51.132;7.178;2023-02-15T02:09:18;99861.72;;;12.13;nan
62164;BME280;48149;51.132;7.178;2023-02-15T02:11:44;99855.13;;;11.68;nan
62164;BME280;48149;51.132;7.178;2023-02-15T02:14:11;99850.25;;;11.87;nan
62164;BME280;48149;51.132;7.178;2023-02-15T02:16:46;99849.81;;;10.98;nan
62164;BME280;48149;51.132;7.178;2023-02-15T02:24:23;99850.00;;;12.09;nan
62164;BME280;48149;51.132;7.178;2023-02-15T02:35:11;99833.44;;;11.53;nan
62164;BME280;48149;51.132;7.178;2023-02-15T02:42:40;99825.13;;;12.05;nan
62164;BME280;48149;51.132;7.178;2023-02-15T02:45:09;99818.59;;;11.67;nan
62164;BME280;48149;51.132;7.178;2023-02-15T02:47:48;99820.59;;;10.44;nan
62164;BME280;48149;51.132;7.178;2023-02-15T02:50:23;99814.44;;;10.88;nan
62164;BME280;48149;51.132;7.178;2023-02-15T02:52:50;99808.34;;;11.23;nan
62164;BME280;48149;51.132;7.178;2023-02-15T02:57:43;99806.28;;;11.95;nan
62164;BME280;48149;51.132;7.178;2023-02-15T03:00:11;99811.91;;;12.26;nan
62164;BME280;48149;51.132;7.178;2023-02-15T03:02:37;99806.19;;;11.82;nan
62164;BME280;48149;51.132;7.178;2023-02-15T03:05:08;99811.53;;;11.67;nan
62164;BME280;48149;51.132;7.178;2023-02-15T03:07:33;99804.78;;;11.09;nan
62164;BME280;48149;51.132;7.178;2023-02-15T03:10:01;99803.34;;;11.28;nan
62164;BME280;48149;51.132;7.178;2023-02-15T03:12:37;99802.53;;;11.76;nan
62164;BME280;48149;51.132;7.178;2023-02-15T03:15:12;99792.78;;;11.43;nan
62164;BME280;48149;51.132;7.178;2023-02-15T03:17:43;99786.97;;;12.03;nan
62164;BME280;48149;51.132;7.178;2023-02-15T03:20:20;99780.38;;;11.58;nan
62164;BME280;48149;51.132;7.178;2023-02-15T03:22:50;99787.72;;;11.41;nan
62164;BME280;48149;51.132;7.178;2023-02-15T03:25:23;99786.59;;;11.50;nan
62164;BME280;48149;51.132;7.178;2023-02-15T03:27:54;99785.25;;;11.89;nan
62164;BME280;48149;51.132;7.178;2023-02-15T03:30:20;99781.78;;;11.05;nan
62164;BME280;48149;51.132;7.178;2023-02-15T03:32:47;99769.81;;;11.72;nan
62164;BME280;48149;51.132;7.178;2023-02-15T03:35:14;99773.06;;;11.74;nan
62164;BME280;48149;51.132;7.178;2023-02-15T03:37:53;99779.38;;;12.21;nan
62164;BME280;48149;51.132;7.178;2023-02-15T03:40:23;99785.81;;;12.12;nan
62164;BME280;48149;51.132;7.178;2023-02-15T03:43:15;99777.16;;;11.35;nan
62164;BME280;48149;51.132;7.178;2023-02-15T03:45:42;99774.59;;;11.41;nan
62164;BME280;48149;51.132;7.178;2023-02-15T03:48:21;99770.75;;;11.37;nan
62164;BME280;48149;51.132;7.178;2023-02-15T03:50:47;99774.69;;;11.75;nan
62164;BME280;48149;51.132;7.178;2023-02-15T03:53:31;99770.75;;;11.37;nan
62164;BME280;48149;51.132;7.178;2023-02-15T03:55:57;99772.56;;;12.33;nan
62164;BME280;48149;51.132;7.178;2023-02-15T03:58:22;99783.34;;;12.04;nan
62164;BME280;48149;51.132;7.178;2023-02-15T04:01:40;99778.50;;;12.07;nan
62164;BME280;48149;51.132;7.178;2023-02-15T04:04:20;99771.88;;;11.49;nan
62164;BME280;48149;51.132;7.178;2023-02-15T04:06:46;99778.88;;;11.70;nan
62164;BME280;48149;51.132;7.178;2023-02-15T04:09:12;99762.75;;;11.45;nan
62164;BME280;48149;51.132;7.178;2023-02-15T04:11:55;99772.41;;;11.17;nan
62164;BME280;48149;51.132;7.178;2023-02-15T04:14:21;99772.16;;;11.12;nan
62164;BME280;48149;51.132;7.178;2023-02-15T04:17:05;99779.28;;;12.01;nan
62164;BME280;48149;51.132;7.178;2023-02-15T04:19:30;99782.47;;;11.90;nan
62164;BME280;48149;51.132;7.178;2023-02-15T04:22:14;99769.88;;;12.80;nan
62164;BME280;48149;51.132;7.178;2023-02-15T04:24:58;99780.59;;;11.56;nan
62164;BME280;48149;51.132;7.178;2023-02-15T04:27:40;99776.19;;;11.63;nan
62164;BME280;48149;51.132;7.178;2023-02-15T04:30:06;99767.41;;;11.71;nan
62164;BME280;48149;51.132;7.178;2023-02-15T04:32:32;99771.34;;;11.11;nan
62164;BME280;48149;51.132;7.178;2023-02-15T04:34:58;99762.03;;;11.30;nan
62164;BME280;48149;51.132;7.178;2023-02-15T04:37:23;99771.69;;;11.79;nan
62164;BME280;48149;51.132;7.178;2023-02-15T04:39:48;99763.16;;;11.21;nan
62164;BME280;48149;51.132;7.178;2023-02-15T04:42:14;99766.81;;;12.70;nan
62164;BME280;48149;51.132;7.178;2023-02-15T04:44:40;99762.16;;;11.22;nan
62164;BME280;48149;51.132;7.178;2023-02-15T04:47:05;99763.56;;;11.46;nan
62164;BME280;48149;51.132;7.178;2023-02-15T04:49:30;99760.44;;;11.36;nan
62164;BME280;48149;51.132;7.178;2023-02-15T04:51:55;99766.06;;;11.60;nan
62164;BME280;48149;51.132;7.178;2023-02-15T04:54:21;99767.06;;;11.81;nan
62164;BME280;48149;51.132;7.178;2023-02-15T04:56:46;99767.47;;;11.56;nan
62164;BME280;48149;51.132;7.178;2023-02-15T04:59:11;99764.81;;;11.29;nan
62164;BME280;48149;51.132;7.178;2023-02-15T05:01:36;99769.13;;;11.92;nan
62164;BME280;48149;51.132;7.178;2023-02-15T05:04:02;99758.88;;;10.92;nan
62164;BME280;48149;51.132;7.178;2023-02-15T05:06:27;99759.84;;;10.49;nan
62164;BME280;48149;51.132;7.178;2023-02-15T05:08:52;99755.28;;;10.93;nan
62164;BME280;48149;51.132;7.178;2023-02-15T05:11:18;99755.34;;;11.83;nan
62164;BME280;48149;51.132;7.178;2023-02-15T05:13:43;99760.53;;;11.70;nan
62164;BME280;48149;51.132;7.178;2023-02-15T05:16:08;99758.47;;;11.65;nan
62164;BME280;48149;51.132;7.178;2023-02-15T05:18:33;99750.63;;;11.44;nan
62164;BME280;48149;51.132;7.178;2023-02-15T05:20:59;99751.31;;;11.81;nan
62164;BME280;48149;51.132;7.178;2023-02-15T05:23:24;99744.72;;;11.63;nan
62164;BME280;48149;51.132;7.178;2023-02-15T05:25:49;99765.41;;;12.14;nan
62164;BME280;48149;51.132;7.178;2023-02-15T05:28:34;99749.25;;;11.76;nan
62164;BME280;48149;51.132;7.178;2023-02-15T05:33:24;99754.38;;;11.56;nan
62164;BME280;48149;51.132;7.178;2023-02-15T05:35:49;99752.75;;;11.55;nan
62164;BME280;48149;51.132;7.178;2023-02-15T05:38:16;99746.00;;;10.97;nan
62164;BME280;48149;51.132;7.178;2023-02-15T05:40:41;99744.94;;;11.34;nan
62164;BME280;48149;51.132;7.178;2023-02-15T05:43:06;99741.97;;;10.74;nan
62164;BME280;48149;51.132;7.178;2023-02-15T05:45:31;99741.28;;;11.07;nan
62164;BME280;48149;51.132;7.178;2023-02-15T05:47:56;99744.88;;;11.06;nan
62164;BME280;48149;51.132;7.178;2023-02-15T05:50:23;99744.53;;;11.37;nan
62164;BME280;48149;51.132;7.178;2023-02-15T05:52:48;99745.25;;;11.03;nan
62164;BME280;48149;51.132;7.178;2023-02-15T05:55:13;99755.31;;;11.49;nan
62164;BME280;48149;51.132;7.178;2023-02-15T05:57:39;99745.31;;;11.31;nan
62164;BME280;48149;51.132;7.178;2023-02-15T06:00:04;99742.53;;;10.90;nan
62164;BME280;48149;51.132;7.178;2023-02-15T06:02:33;99744.22;;;11.47;nan
62164;BME280;48149;51.132;7.178;2023-02-15T06:04:59;99750.16;;;11.62;nan
62164;BME280;48149;51.132;7.178;2023-02-15T06:07:24;99745.88;;;11.54;nan
62164;BME280;48149;51.132;7.178;2023-02-15T06:09:49;99741.38;;;12.17;nan
62164;BME280;48149;51.132;7.178;2023-02-15T06:12:14;99744.81;;;11.21;nan
62164;BME280;48149;51.132;7.178;2023-02-15T06:14:40;99739.38;;;11.22;nan
62164;BME280;48149;51.132;7.178;2023-02-15T06:17:05;99737.06;;;11.13;nan
62164;BME280;48149;51.132;7.178;2023-02-15T06:19:30;99742.84;;;11.85;nan
62164;BME280;48149;51.132;7.178;2023-02-15T06:21:55;99744.28;;;11.32;nan
62164;BME280;48149;51.132;7.178;2023-02-15T06:24:21;99734.13;;;10.74;nan
62164;BME280;48149;51.132;7.178;2023-02-15T06:26:46;99744.22;;;10.55;nan
62164;BME280;48149;51.132;7.178;2023-02-15T06:29:11;99739.16;;;10.75;nan
62164;BME280;48149;51.132;7.178;2023-02-15T06:31:36;99741.78;;;10.96;nan
62164;BME280;48149;51.132;7.178;2023-02-15T06:34:01;99740.47;;;10.86;nan
62164;BME280;48149;51.132;7.178;2023-02-15T06:36:27;99746.41;;;11.71;nan
62164;BME280;48149;51.132;7.178;2023-02-15T06:38:53;99750.56;;;11.31;nan
62164;BME280;48149;51.132;7.178;2023-02-15T06:41:18;99744.66;;;11.50;nan
62164;BME280;48149;51.132;7.178;2023-02-15T06:43:44;99752.03;;;11.19;nan
62164;BME280;48149;51.132;7.178;2023-02-15T06:46:09;99749.31;;;11.27;nan
62164;BME280;48149;51.132;7.178;2023-02-15T06:48:34;99757.53;;;11.24;nan
62164;BME280;48149;51.132;7.178;2023-02-15T06:50:59;99759.81;;;10.85;nan
62164;BME280;48149;51.132;7.178;2023-02-15T06:53:24;99754.28;;;11.43;nan
62164;BME280;48149;51.132;7.178;2023-02-15T06:55:50;99757.44;;;11.39;nan
62164;BME280;48149;51.132;7.178;2023-02-15T06:58:15;99759.28;;;11.66;nan
62164;BME280;48149;51.132;7.178;2023-02-15T07:00:40;99758.75;;;10.79;nan
62164;BME280;48149;51.132;7.178;2023-02-15T07:03:05;99762.47;;;11.61;nan
62164;BME280;48149;51.132;7.178;2023-02-15T07:05:32;99749.78;;;11.37;nan
62164;BME280;48149;51.132;7.178;2023-02-15T07:07:58;99754.16;;;11.58;nan
62164;BME280;48149;51.132;7.178;2023-02-15T07:10:23;99750.94;;;11.28;nan
62164;BME280;48149;51.132;7.178;2023-02-15T07:12:49;99754.19;;;11.09;nan
62164;BME280;48149;51.132;7.178;2023-02-15T07:15:15;99750.84;;;11.43;nan
62164;BME280;48149;51.132;7.178;2023-02-15T07:17:41;99756.38;;;11.05;nan
62164;BME280;48149;51.132;7.178;2023-02-15T07:20:08;99756.06;;;11.15;nan
62164;BME280;48149;51.132;7.178;2023-02-15T07:22:34;99763.38;;;12.09;nan
62164;BME280;48149;51.132;7.178;2023-02-15T07:25:01;99758.31;;;11.46;nan
62164;BME280;48149;51.132;7.178;2023-02-15T07:27:26;99746.97;;;11.39;nan
62164;BME280;48149;51.132;7.178;2023-02-15T07:29:51;99748.84;;;10.75;nan
62164;BME280;48149;51.132;7.178;2023-02-15T07:32:16;99752.69;;;10.79;nan
62164;BME280;48149;51.132;7.178;2023-02-15T07:34:41;99744.00;;;11.48;nan
62164;BME280;48149;51.132;7.178;2023-02-15T07:37:07;99735.09;;;11.15;nan
62164;BME280;48149;51.132;7.178;2023-02-15T07:39:32;99736.66;;;11.65;nan
62164;BME280;48149;51.132;7.178;2023-02-15T07:41:57;99723.69;;;12.32;nan
62164;BME280;48149;51.132;7.178;2023-02-15T07:44:24;99713.47;;;12.57;nan
62164;BME280;48149;51.132;7.178;2023-02-15T07:46:49;99720.50;;;11.61;nan
62164;BME280;48149;51.132;7.178;2023-02-15T07:49:15;99711.34;;;12.32;nan
62164;BME280;48149;51.132;7.178;2023-02-15T07:51:40;99711.44;;;12.59;nan
62164;BME280;48149;51.132;7.178;2023-02-15T07:54:06;99702.53;;;12.53;nan
62164;BME280;48149;51.132;7.178;2023-02-15T07:56:31;99704.72;;;10.99;nan
62164;BME280;48149;51.132;7.178;2023-02-15T07:58:57;99707.97;;;11.29;nan
62164;BME280;48149;51.132;7.178;2023-02-15T08:01:25;99705.13;;;11.86;nan
62164;BME280;48149;51.132;7.178;2023-02-15T08:03:51;99700.19;;;12.11;nan
62164;BME280;48149;51.132;7.178;2023-02-15T08:06:17;99697.09;;;12.61;nan
62164;BME280;48149;51.132;7.178;2023-02-15T08:08:42;99697.28;;;12.47;nan
62164;BME280;48149;51.132;7.178;2023-02-15T08:11:17;99696.91;;;12.69;nan
62164;BME280;48149;51.132;7.178;2023-02-15T08:13:53;99695.00;;;14.39;nan
62164;BME280;48149;51.132;7.178;2023-02-15T08:16:23;99699.72;;;12.61;nan
62164;BME280;48149;51.132;7.178;2023-02-15T08:18:48;99693.69;;;13.07;nan
62164;BME280;48149;51.132;7.178;2023-02-15T08:21:14;99690.28;;;13.19;nan
62164;BME280;48149;51.132;7.178;2023-02-15T08:23:39;99695.53;;;13.19;nan
62164;BME280;48149;51.132;7.178;2023-02-15T08:26:04;99687.22;;;12.70;nan
62164;BME280;48149;51.132;7.178;2023-02-15T08:28:30;99689.44;;;13.52;nan
62164;BME280;48149;51.132;7.178;2023-02-15T08:30:55;99690.28;;;13.97;nan
62164;BME280;48149;51.132;7.178;2023-02-15T08:33:20;99686.94;;;13.70;nan
62164;BME280;48149;51.132;7.178;2023-02-15T08:35:45;99684.22;;;13.12;nan
62164;BME280;48149;51.132;7.178;2023-02-15T08:38:10;99676.50;;;12.71;nan
62164;BME280;48149;51.132;7.178;2023-02-15T08:40:36;99681.94;;;14.06;nan
62164;BME280;48149;51.132;7.178;2023-02-15T08:43:02;99681.97;;;13.29;nan
62164;BME280;48149;51.132;7.178;2023-02-15T08:45:28;99683.88;;;13.79;nan
62164;BME280;48149;51.132;7.178;2023-02-15T08:47:53;99680.75;;;13.38;nan
62164;BME280;48149;51.132;7.178;2023-02-15T08:50:18;99672.31;;;13.80;nan
62164;BME280;48149;51.132;7.178;2023-02-15T08:52:44;99679.78;;;14.72;nan
62164;BME280;48149;51.132;7.178;2023-02-15T08:55:09;99678.22;;;15.14;nan
62164;BME280;48149;51.132;7.178;2023-02-15T08:57:34;99671.56;;;14.87;nan
62164;BME280;48149;51.132;7.178;2023-02-15T08:59:59;99681.53;;;16.07;nan
62164;BME280;48149;51.132;7.178;2023-02-15T09:02:24;99681.56;;;18.62;nan
62164;BME280;48149;51.132;7.178;2023-02-15T09:04:50;99678.72;;;18.41;nan
62164;BME280;48149;51.132;7.178;2023-02-15T09:07:16;99661.47;;;18.83;nan
62164;BME280;48149;51.132;7.178;2023-02-15T09:09:43;99673.75;;;19.06;nan
62164;BME280;48149;51.132;7.178;2023-02-15T09:12:10;99673.47;;;20.01;nan
62164;BME280;48149;51.132;7.178;2023-02-15T09:14:35;99668.31;;;20.38;nan
62164;BME280;48149;51.132;7.178;2023-02-15T09:17:01;99660.50;;;18.89;nan
62164;BME280;48149;51.132;7.178;2023-02-15T09:19:26;99675.16;;;22.28;nan
62164;BME280;48149;51.132;7.178;2023-02-15T09:21:51;99676.25;;;22.52;nan
62164;BME280;48149;51.132;7.178;2023-02-15T09:24:16;99663.66;;;21.55;nan
62164;BME280;48149;51.132;7.178;2023-02-15T09:26:43;99671.28;;;21.94;nan
62164;BME280;48149;51.132;7.178;2023-02-15T09:29:09;99671.44;;;21.67;nan
62164;BME280;48149;51.132;7.178;2023-02-15T09:31:39;99668.81;;;23.00;nan
62164;BME280;48149;51.132;7.178;2023-02-15T09:34:06;99673.00;;;23.51;nan
62164;BME280;48149;51.132;7.178;2023-02-15T09:36:32;99672.81;;;21.79;nan
62164;BME280;48149;51.132;7.178;2023-02-15T09:46:54;99688.53;;;22.63;nan
62164;BME280;48149;51.132;7.178;2023-02-15T09:52:14;99679.75;;;22.73;nan
62164;BME280;48149;51.132;7.178;2023-02-15T09:57:34;99691.25;;;26.01;nan
62164;BME280;48149;51.132;7.178;2023-02-15T10:02:34;99690.84;;;27.20;nan
62164;BME280;48149;51.132;7.178;2023-02-15T10:05:11;99690.91;;;25.65;nan
62164;BME280;48149;51.132;7.178;2023-02-15T10:07:51;99691.56;;;25.76;nan
62164;BME280;48149;51.132;7.178;2023-02-15T10:10:33;99698.28;;;27.55;nan
62164;BME280;48149;51.132;7.178;2023-02-15T10:21:03;99684.34;;;25.19;nan
62164;BME280;48149;51.132;7.178;2023-02-15T10:29:08;99687.00;;;26.00;nan
62164;BME280;48149;51.132;7.178;2023-02-15T10:34:09;99675.66;;;26.96;nan
62164;BME280;48149;51.132;7.178;2023-02-15T10:36:41;99682.38;;;26.43;nan
62164;BME280;48149;51.132;7.178;2023-02-15T10:47:38;99682.59;;;26.84;nan
62164;BME280;48149;51.132;7.178;2023-02-15T10:52:32;99680.03;;;29.31;nan
62164;BME280;48149;51.132;7.178;2023-02-15T10:55:13;99680.22;;;28.24;nan
62164;BME280;48149;51.132;7.178;2023-02-15T10:57:49;99675.25;;;29.59;nan
62164;BME280;48149;51.132;7.178;2023-02-15T11:00:27;99676.59;;;28.64;nan
62164;BME280;48149;51.132;7.178;2023-02-15T11:07:54;99658.66;;;27.01;nan
62164;BME280;48149;51.132;7.178;2023-02-15T11:10:30;99658.19;;;25.11;nan
62164;BME280;48149;51.132;7.178;2023-02-15T11:12:57;99658.50;;;25.33;nan
62164;BME280;48149;51.132;7.178;2023-02-15T11:15:31;99658.31;;;26.89;nan
62164;BME280;48149;51.132;7.178;2023-02-15T11:20:55;99652.13;;;25.76;nan
62164;BME280;48149;51.132;7.178;2023-02-15T11:23:21;99646.84;;;27.29;nan
62164;BME280;48149;51.132;7.178;2023-02-15T11:26:11;99635.44;;;29.03;nan
62164;BME280;48149;51.132;7.178;2023-02-15T11:28:39;99644.03;;;28.16;nan
62164;BME280;48149;51.132;7.178;2023-02-15T11:31:12;99640.06;;;27.18;nan
62164;BME280;48149;51.132;7.178;2023-02-15T11:33:39;99637.53;;;31.51;nan
62164;BME280;48149;51.132;7.178;2023-02-15T11:36:50;99640.88;;;31.98;nan
62164;BME280;48149;51.132;7.178;2023-02-15T11:39:16;99633.19;;;29.67;nan
62164;BME280;48149;51.132;7.178;2023-02-15T11:41:49;99627.34;;;29.25;nan
62164;BME280;48149;51.132;7.178;2023-02-15T11:44:22;99622.88;;;32.23;nan
62164;BME280;48149;51.132;7.178;2023-02-15T11:46:49;99621.97;;;32.52;nan
62164;BME280;48149;51.132;7.178;2023-02-15T11:49:21;99618.38;;;34.02;nan
62164;BME280;48149;51.132;7.178;2023-02-15T11:51:48;99618.00;;;33.39;nan
62164;BME280;48149;51.132;7.178;2023-02-15T11:54:15;99622.31;;;33.64;nan
62164;BME280;48149;51.132;7.178;2023-02-15T11:56:41;99628.97;;;33.31;nan
62164;BME280;48149;51.132;7.178;2023-02-15T11:59:11;99628.31;;;32.56;nan
62164;BME280;48149;51.132;7.178;2023-02-15T12:01:38;99633.41;;;29.31;nan
62164;BME280;48149;51.132;7.178;2023-02-15T12:09:34;99615.75;;;34.45;nan
62164;BME280;48149;51.132;7.178;2023-02-15T12:14:51;99607.59;;;32.18;nan
62164;BME280;48149;51.132;7.178;2023-02-15T12:17:16;99600.69;;;33.32;nan
62164;BME280;48149;51.132;7.178;2023-02-15T12:19:41;99594.00;;;33.29;nan
62164;BME280;48149;51.132;7.178;2023-02-15T12:22:21;99591.22;;;32.15;nan
62164;BME280;48149;51.132;7.178;2023-02-15T12:24:48;99586.63;;;28.07;nan
62164;BME280;48149;51.132;7.178;2023-02-15T12:27:18;99583.31;;;27.61;nan
62164;BME280;48149;51.132;7.178;2023-02-15T12:29:55;99587.38;;;22.82;nan
62164;BME280;48149;51.132;7.178;2023-02-15T12:32:35;99574.28;;;24.58;nan
62164;BME280;48149;51.132;7.178;2023-02-15T12:35:13;99570.03;;;24.80;nan
62164;BME280;48149;51.132;7.178;2023-02-15T12:37:39;99578.78;;;24.28;nan
62164;BME280;48149;51.132;7.178;2023-02-15T12:40:21;99571.88;;;24.56;nan
62164;BME280;48149;51.132;7.178;2023-02-15T12:42:46;99577.78;;;22.81;nan
62164;BME280;48149;51.132;7.178;2023-02-15T12:47:46;99558.03;;;22.47;nan
62164;BME280;48149;51.132;7.178;2023-02-15T12:50:13;99565.16;;;21.91;nan
62164;BME280;48149;51.132;7.178;2023-02-15T12:52:48;99568.03;;;23.89;nan
62164;BME280;48149;51.132;7.178;2023-02-15T12:55:22;99552.16;;;22.40;nan
62164;BME280;48149;51.132;7.178;2023-02-15T12:57:47;99551.00;;;23.16;nan
62164;BME280;48149;51.132;7.178;2023-02-15T13:02:42;99556.66;;;25.33;nan
62164;BME280;48149;51.132;7.178;2023-02-15T13:07:38;99547.41;;;24.39;nan
62164;BME280;48149;51.132;7.178;2023-02-15T13:10:18;99541.75;;;24.02;nan
62164;BME280;48149;51.132;7.178;2023-02-15T13:12:46;99549.88;;;24.59;nan
62164;BME280;48149;51.132;7.178;2023-02-15T13:15:22;99535.50;;;24.21;nan
62164;BME280;48149;51.132;7.178;2023-02-15T13:17:49;99547.13;;;23.53;nan
62164;BME280;48149;51.132;7.178;2023-02-15T13:20:19;99539.25;;;24.20;nan
62164;BME280;48149;51.132;7.178;2023-02-15T13:22:47;99536.25;;;24.61;nan
62164;BME280;48149;51.132;7.178;2023-02-15T13:25:17;99537.91;;;23.79;nan
62164;BME280;48149;51.132;7.178;2023-02-15T13:27:44;99530.28;;;24.01;nan
62164;BME280;48149;51.132;7.178;2023-02-15T13:33:02;99529.97;;;25.84;nan
62164;BME280;48149;51.132;7.178;2023-02-15T13:35:29;99525.78;;;29.21;nan
62164;BME280;48149;51.132;7.178;2023-02-15T13:40:25;99522.38;;;32.16;nan
62164;BME280;48149;51.132;7.178;2023-02-15T13:50:25;99500.72;;;34.72;nan
62164;BME280;48149;51.132;7.178;2023-02-15T13:55:26;99489.56;;;32.30;nan
62164;BME280;48149;51.132;7.178;2023-02-15T14:08:21;99497.91;;;34.85;nan
62164;BME280;48149;51.132;7.178;2023-02-15T14:19:03;99468.84;;;33.70;nan
62164;BME280;48149;51.132;7.178;2023-02-15T14:21:34;99479.97;;;34.99;nan
62164;BME280;48149;51.132;7.178;2023-02-15T14:24:17;99491.25;;;31.81;nan
62164;BME280;48149;51.132;7.178;2023-02-15T14:26:56;99483.59;;;35.38;nan
62164;BME280;48149;51.132;7.178;2023-02-15T14:29:28;99477.75;;;35.74;nan
62164;BME280;48149;51.132;7.178;2023-02-15T14:32:08;99485.19;;;33.86;nan
62164;BME280;48149;51.132;7.178;2023-02-15T14:37:03;99476.28;;;34.13;nan
62164;BME280;48149;51.132;7.178;2023-02-15T14:39:31;99482.06;;;31.94;nan
62164;BME280;48149;51.132;7.178;2023-02-15T14:42:24;99482.25;;;32.42;nan
62164;BME280;48149;51.132;7.178;2023-02-15T14:47:42;99481.28;;;32.14;nan
62164;BME280;48149;51.132;7.178;2023-02-15T14:53:14;99482.44;;;31.71;nan
62164;BME280;48149;51.132;7.178;2023-02-15T14:55:39;99476.38;;;31.04;nan
62164;BME280;48149;51.132;7.178;2023-02-15T14:58:09;99476.31;;;30.28;nan
62164;BME280;48149;51.132;7.178;2023-02-15T15:00:39;99474.94;;;28.57;nan
62164;BME280;48149;51.132;7.178;2023-02-15T15:03:12;99471.75;;;28.86;nan
62164;BME280;48149;51.132;7.178;2023-02-15T15:05:53;99469.06;;;28.25;nan
62164;BME280;48149;51.132;7.178;2023-02-15T15:08:31;99465.88;;;29.49;nan
62164;BME280;48149;51.132;7.178;2023-02-15T15:10:58;99466.44;;;29.12;nan
62164;BME280;48149;51.132;7.178;2023-02-15T15:13:54;99454.03;;;28.24;nan
62164;BME280;48149;51.132;7.178;2023-02-15T15:16:24;99460.38;;;26.84;nan
62164;BME280;48149;51.132;7.178;2023-02-15T15:18:49;99453.34;;;26.42;nan
62164;BME280;48149;51.132;7.178;2023-02-15T15:23:58;99446.03;;;25.83;nan
62164;BME280;48149;51.132;7.178;2023-02-15T15:26:28;99458.16;;;26.59;nan
62164;BME280;48149;51.132;7.178;2023-02-15T15:28:54;99457.16;;;26.09;nan
62164;BME280;48149;51.132;7.178;2023-02-15T15:31:37;99455.41;;;25.25;nan
62164;BME280;48149;51.132;7.178;2023-02-15T15:37:04;99455.78;;;24.18;nan
62164;BME280;48149;51.132;7.178;2023-02-15T15:39:47;99450.59;;;24.56;nan
62164;BME280;48149;51.132;7.178;2023-02-15T15:43:09;99450.63;;;24.27;nan
62164;BME280;48149;51.132;7.178;2023-02-15T15:50:34;99460.19;;;23.99;nan
62164;BME280;48149;51.132;7.178;2023-02-15T15:53:00;99466.16;;;22.93;nan
62164;BME280;48149;51.132;7.178;2023-02-15T15:55:27;99475.03;;;22.68;nan
62164;BME280;48149;51.132;7.178;2023-02-15T15:57:58;99463.44;;;22.98;nan